createdAt,value
2022-10-05T00:00:47.376Z,10.07
2022-10-05T00:03:16.960Z,9.80
2022-10-05T00:05:46.834Z,12.65
2022-10-05T00:08:18.722Z,14.30
2022-10-05T00:10:47.559Z,12.88
2022-10-05T00:13:17.910Z,12.02
2022-10-05T00:15:46.387Z,11.32
2022-10-05T00:18:17.917Z,10.50
2022-10-05T00:20:46.983Z,9.85
2022-10-05T00:23:19.388Z,7.60
2022-10-05T00:25:48.114Z,9.98
2022-10-05T00:28:21.124Z,7.80
2022-10-05T00:30:49.571Z,13.80
2022-10-05T00:33:19.184Z,8.10
2022-10-05T00:35:47.547Z,9.75
2022-10-05T00:38:16.133Z,9.52
2022-10-05T00:40:59.134Z,9.02
2022-10-05T00:43:55.937Z,9.43
2022-10-05T00:46:27.954Z,6.18
2022-10-05T00:49:08.368Z,12.00
2022-10-05T00:51:38.862Z,9.27
2022-10-05T00:54:28.070Z,13.00
2022-10-05T00:57:13.092Z,13.30
2022-10-05T00:59:52.609Z,12.30
2022-10-05T01:02:32.985Z,10.65
2022-10-05T01:05:12.091Z,11.35
2022-10-05T01:07:48.860Z,11.05
2022-10-05T01:10:23.572Z,10.68
2022-10-05T01:13:02.808Z,11.50
2022-10-05T01:15:34.515Z,10.05
2022-10-05T01:18:09.646Z,8.88
2022-10-05T01:20:51.076Z,8.32
2022-10-05T01:23:49.125Z,13.77
2022-10-05T01:26:37.648Z,9.65
2022-10-05T01:29:12.705Z,10.63
2022-10-05T01:31:46.835Z,11.07
2022-10-05T01:34:24.098Z,10.50
2022-10-05T01:37:03.484Z,15.15
2022-10-05T01:39:39.897Z,21.50
2022-10-05T01:42:18.605Z,22.50
2022-10-05T01:44:58.760Z,17.70
2022-10-05T01:47:32.186Z,10.77
2022-10-05T01:50:04.569Z,22.98
2022-10-05T01:52:45.024Z,17.80
2022-10-05T01:55:20.256Z,14.02
2022-10-05T01:58:02.960Z,9.63
2022-10-05T02:00:36.627Z,13.05
2022-10-05T02:03:11.557Z,8.95
2022-10-05T02:05:45.605Z,12.68
2022-10-05T02:08:18.824Z,9.10
2022-10-05T02:10:52.476Z,7.45
2022-10-05T02:13:26.602Z,8.35
2022-10-05T02:16:01.723Z,10.63
2022-10-05T02:18:35.203Z,9.75
2022-10-05T02:21:06.654Z,7.50
2022-10-05T02:23:37.873Z,9.55
2022-10-05T02:26:07.909Z,8.43
2022-10-05T02:28:40.769Z,8.50
2022-10-05T02:31:12.891Z,9.63
2022-10-05T02:33:41.469Z,10.20
2022-10-05T02:36:17.264Z,9.10
2022-10-05T02:39:01.001Z,10.23
2022-10-05T02:41:43.804Z,11.32
2022-10-05T02:44:20.967Z,11.65
2022-10-05T02:47:00.666Z,12.80
2022-10-05T02:49:41.443Z,9.07
2022-10-05T02:52:17.554Z,9.65
2022-10-05T02:54:52.434Z,12.07
2022-10-05T02:57:29.358Z,8.20
2022-10-05T03:00:06.889Z,6.88
2022-10-05T03:02:42.729Z,6.65
2022-10-05T03:05:19.823Z,11.13
2022-10-05T03:07:54.935Z,9.00
2022-10-05T03:10:29.530Z,8.30
2022-10-05T03:13:05.004Z,10.75
2022-10-05T03:16:00.043Z,10.07
2022-10-05T03:18:46.893Z,11.43
2022-10-05T03:21:30.061Z,17.67
2022-10-05T03:24:13.506Z,13.57
2022-10-05T03:26:45.949Z,23.13
2022-10-05T03:29:28.485Z,15.45
2022-10-05T03:32:05.191Z,13.77
2022-10-05T03:34:41.182Z,14.52
2022-10-05T03:37:14.221Z,14.48
2022-10-05T03:39:50.272Z,20.02
2022-10-05T03:42:26.393Z,12.73
2022-10-05T03:45:00.728Z,11.25
2022-10-05T03:47:37.057Z,13.98
2022-10-05T03:50:25.047Z,8.93
2022-10-05T03:52:59.132Z,9.50
2022-10-05T03:55:32.461Z,9.68
2022-10-05T03:58:07.318Z,7.40
2022-10-05T04:00:38.009Z,8.05
2022-10-05T04:03:13.605Z,9.90
2022-10-05T04:05:49.114Z,6.85
2022-10-05T04:08:23.757Z,6.80
2022-10-05T04:10:53.884Z,8.90
2022-10-05T04:13:30.756Z,9.02
2022-10-05T04:16:03.636Z,6.78
2022-10-05T04:18:35.866Z,5.88
2022-10-05T04:21:10.906Z,7.40
2022-10-05T04:23:51.288Z,9.32
2022-10-05T04:26:27.202Z,8.88
2022-10-05T04:29:03.739Z,10.38
2022-10-05T04:31:57.735Z,10.15
2022-10-05T04:34:43.781Z,10.13
2022-10-05T04:37:20.936Z,14.43
2022-10-05T04:39:59.686Z,11.35
2022-10-05T04:42:35.525Z,8.88
2022-10-05T04:45:11.379Z,9.82
2022-10-05T04:47:59.217Z,10.70
2022-10-05T04:50:39.755Z,11.68
2022-10-05T04:53:25.525Z,9.98
2022-10-05T04:55:59.080Z,7.65
2022-10-05T04:58:46.232Z,7.65
2022-10-05T05:01:39.160Z,8.48
2022-10-05T05:04:22.772Z,9.05
2022-10-05T05:07:03.164Z,7.93
2022-10-05T05:10:14.519Z,8.07
2022-10-05T05:12:51.815Z,11.93
2022-10-05T05:15:34.581Z,14.27
2022-10-05T05:18:18.854Z,12.63
2022-10-05T05:20:55.904Z,12.50
2022-10-05T05:23:33.208Z,14.73
2022-10-05T05:26:13.924Z,19.13
2022-10-05T05:28:51.685Z,36.80
2022-10-05T05:31:29.034Z,34.33
2022-10-05T05:34:05.020Z,38.80
2022-10-05T05:36:50.884Z,41.28
2022-10-05T05:39:29.653Z,34.47
2022-10-05T05:42:11.326Z,25.50
2022-10-05T05:44:47.063Z,22.90
2022-10-05T05:47:21.599Z,28.02
2022-10-05T05:50:11.129Z,24.53
2022-10-05T05:52:47.039Z,34.33
2022-10-05T05:55:21.388Z,22.67
2022-10-05T05:57:56.741Z,24.92
2022-10-05T06:00:28.899Z,29.98
2022-10-05T06:03:06.847Z,28.48
2022-10-05T06:05:41.638Z,28.02
2022-10-05T06:08:19.515Z,34.47
2022-10-05T06:10:56.816Z,32.63
2022-10-05T06:13:31.531Z,42.45
2022-10-05T06:16:05.499Z,34.58
2022-10-05T06:18:34.481Z,39.85
2022-10-05T06:21:06.810Z,36.67
2022-10-05T06:23:42.095Z,48.83
2022-10-05T06:26:18.462Z,39.03
2022-10-05T06:28:55.193Z,43.25
2022-10-05T06:31:43.024Z,52.13
2022-10-05T06:34:22.567Z,48.80
2022-10-05T06:36:54.382Z,51.88
2022-10-05T06:39:53.907Z,53.85
2022-10-05T06:42:40.299Z,48.40
2022-10-05T06:45:32.051Z,40.55
2022-10-05T06:48:18.622Z,45.80
2022-10-05T06:51:10.629Z,43.83
2022-10-05T06:54:08.565Z,40.55
2022-10-05T06:56:41.980Z,42.45
2022-10-05T06:59:16.848Z,44.03
2022-10-05T07:01:56.116Z,34.10
2022-10-05T07:04:49.759Z,36.15
2022-10-05T07:07:24.730Z,42.75
2022-10-05T07:10:11.694Z,35.63
2022-10-05T07:12:53.582Z,39.00
2022-10-05T07:15:36.823Z,43.47
2022-10-05T07:18:21.438Z,39.05
2022-10-05T07:20:56.908Z,36.90
2022-10-05T07:23:34.033Z,39.53
2022-10-05T07:26:07.349Z,35.35
2022-10-05T07:28:46.204Z,30.05
2022-10-05T07:31:21.951Z,34.90
2022-10-05T07:34:00.739Z,22.98
2022-10-05T07:36:55.213Z,24.05
2022-10-05T07:39:58.617Z,19.73
2022-10-05T07:42:33.209Z,17.30
2022-10-05T07:45:10.645Z,16.48
2022-10-05T07:47:44.753Z,14.23
2022-10-05T07:50:20.668Z,19.40
2022-10-05T07:52:53.285Z,16.48
2022-10-05T07:55:23.832Z,14.13
2022-10-05T07:58:00.683Z,14.93
2022-10-05T08:00:50.162Z,15.48
2022-10-05T08:03:27.589Z,15.10
2022-10-05T08:05:59.903Z,11.88
2022-10-05T08:08:36.956Z,10.57
2022-10-05T08:11:14.685Z,10.32
2022-10-05T08:13:49.529Z,11.43
2022-10-05T08:16:18.363Z,10.45
2022-10-05T08:18:55.678Z,10.68
2022-10-05T08:21:30.911Z,10.75
2022-10-05T08:24:07.222Z,9.80
2022-10-05T08:26:42.086Z,11.88
2022-10-05T08:29:16.957Z,10.25
2022-10-05T08:31:50.769Z,8.65
2022-10-05T08:34:26.771Z,8.90
2022-10-05T08:37:03.193Z,9.18
2022-10-05T08:39:38.300Z,7.75
2022-10-05T08:42:36.321Z,8.75
2022-10-05T08:45:37.476Z,9.23
2022-10-05T08:48:23.968Z,7.30
2022-10-05T08:51:19.786Z,9.27
2022-10-05T08:54:23.785Z,5.78
2022-10-05T08:57:09.691Z,6.93
2022-10-05T08:59:58.242Z,5.72
2022-10-05T09:02:33.128Z,4.43
2022-10-05T09:05:28.651Z,4.32
2022-10-05T09:08:34.615Z,6.30
2022-10-05T09:11:08.085Z,6.45
2022-10-05T09:14:15.476Z,5.07
2022-10-05T09:17:12.575Z,4.70
2022-10-05T09:20:11.795Z,5.03
2022-10-05T09:23:01.209Z,5.53
2022-10-05T09:25:43.979Z,6.25
2022-10-05T09:28:24.710Z,4.40
2022-10-05T09:31:02.924Z,3.83
2022-10-05T09:34:11.769Z,3.63
2022-10-05T09:37:15.295Z,4.13
2022-10-05T09:40:11.522Z,6.20
2022-10-05T09:43:01.069Z,6.30
2022-10-05T09:45:57.947Z,4.07
2022-10-05T09:48:58.936Z,3.17
2022-10-05T09:52:03.690Z,3.63
2022-10-05T09:55:05.517Z,3.38
2022-10-05T09:58:14.308Z,3.20
2022-10-05T10:01:03.801Z,3.40
2022-10-05T10:04:28.695Z,4.85
2022-10-05T10:07:33.443Z,2.65
2022-10-05T10:10:29.387Z,2.53
2022-10-05T10:13:22.387Z,2.72
2022-10-05T10:16:26.449Z,3.72
2022-10-05T10:19:07.743Z,2.47
2022-10-05T10:21:55.064Z,2.28
2022-10-05T10:24:41.480Z,4.20
2022-10-05T10:27:27.542Z,3.90
2022-10-05T10:30:19.015Z,3.55
2022-10-05T10:33:23.865Z,2.35
2022-10-05T10:36:00.551Z,2.58
2022-10-05T10:38:36.878Z,2.45
2022-10-05T10:41:32.573Z,2.38
2022-10-05T10:44:43.815Z,4.10
2022-10-05T10:47:32.666Z,2.42
2022-10-05T10:50:34.656Z,1.63
2022-10-05T10:53:38.532Z,1.88
2022-10-05T10:56:30.019Z,3.65
2022-10-05T10:59:13.968Z,2.70
2022-10-05T11:01:53.265Z,3.22
2022-10-05T11:04:54.766Z,2.10
2022-10-05T11:07:53.104Z,1.70
2022-10-05T11:10:52.379Z,2.15
2022-10-05T11:13:38.115Z,2.35
2022-10-05T11:16:28.483Z,2.08
2022-10-05T11:19:40.001Z,3.63
2022-10-05T11:22:20.052Z,3.30
2022-10-05T11:25:09.627Z,2.20
2022-10-05T11:27:58.713Z,2.70
2022-10-05T11:31:06.247Z,1.63
2022-10-05T11:34:06.739Z,1.95
2022-10-05T11:37:17.054Z,2.42
2022-10-05T11:40:00.787Z,1.95
2022-10-05T11:42:54.765Z,5.82
2022-10-05T11:45:27.882Z,1.90
2022-10-05T11:48:23.672Z,2.00
2022-10-05T11:51:15.113Z,3.72
2022-10-05T11:53:53.374Z,1.55
2022-10-05T11:56:27.329Z,1.75
2022-10-05T11:59:02.748Z,2.20
2022-10-05T12:01:37.622Z,3.75
2022-10-05T12:04:15.170Z,1.48
2022-10-05T12:06:58.930Z,4.57
2022-10-05T12:10:05.425Z,1.90
2022-10-05T12:12:40.209Z,2.35
2022-10-05T12:15:18.456Z,1.55
2022-10-05T12:17:53.618Z,1.70
2022-10-05T12:20:26.485Z,2.05
2022-10-05T12:22:59.689Z,1.88
2022-10-05T12:25:33.218Z,1.48
2022-10-05T12:28:10.104Z,3.25
2022-10-05T12:31:04.266Z,2.15
2022-10-05T12:33:38.747Z,3.22
2022-10-05T12:36:12.849Z,2.10
2022-10-05T12:38:47.194Z,1.30
2022-10-05T12:41:22.140Z,2.38
2022-10-05T12:44:07.365Z,4.22
2022-10-05T12:46:44.171Z,1.60
2022-10-05T12:49:27.906Z,2.58
2022-10-05T12:51:58.815Z,5.18
2022-10-05T12:54:43.406Z,1.20
2022-10-05T12:57:20.841Z,4.75
2022-10-05T12:59:55.495Z,2.53
2022-10-05T13:02:33.949Z,1.27
2022-10-05T13:05:14.200Z,2.47
2022-10-05T13:08:02.485Z,1.25
2022-10-05T13:10:37.072Z,2.22
2022-10-05T13:13:26.509Z,3.63
2022-10-05T13:16:04.343Z,2.78
2022-10-05T13:18:44.267Z,2.50
2022-10-05T13:21:17.676Z,2.25
2022-10-05T13:23:57.825Z,2.25
2022-10-05T13:26:32.867Z,1.38
2022-10-05T13:29:09.527Z,1.23
2022-10-05T13:31:45.867Z,1.25
2022-10-05T13:34:24.713Z,1.70
2022-10-05T13:37:06.935Z,0.90
2022-10-05T13:39:56.214Z,1.42
2022-10-05T13:42:34.228Z,1.35
2022-10-05T13:45:12.056Z,2.63
2022-10-05T13:47:54.721Z,1.40
2022-10-05T13:50:29.733Z,1.65
2022-10-05T13:53:08.824Z,0.95
2022-10-05T13:55:47.502Z,1.17
2022-10-05T13:58:24.780Z,1.98
2022-10-05T14:00:55.896Z,1.92
2022-10-05T14:03:27.952Z,1.92
2022-10-05T14:05:58.017Z,2.42
2022-10-05T14:08:33.341Z,1.55
2022-10-05T14:11:20.672Z,3.47
2022-10-05T14:13:50.703Z,2.88
2022-10-05T14:16:23.944Z,2.10
2022-10-05T14:18:56.565Z,3.85
2022-10-05T14:21:26.230Z,1.45
2022-10-05T14:23:57.177Z,2.92
2022-10-05T14:26:36.779Z,1.88
2022-10-05T14:29:18.202Z,4.82
2022-10-05T14:31:52.952Z,1.95
2022-10-05T14:34:35.597Z,2.10
2022-10-05T14:37:18.069Z,3.00
2022-10-05T14:39:48.580Z,2.13
2022-10-05T14:42:20.124Z,1.60
2022-10-05T14:45:00.383Z,1.63
2022-10-05T14:47:32.282Z,2.97
2022-10-05T14:50:17.824Z,2.70
2022-10-05T14:53:00.478Z,3.38
2022-10-05T14:55:39.874Z,1.58
2022-10-05T14:58:23.780Z,5.03
2022-10-05T15:00:57.818Z,2.35
2022-10-05T15:03:43.376Z,1.75
2022-10-05T15:06:19.741Z,3.00
2022-10-05T15:09:17.034Z,1.73
2022-10-05T15:11:51.236Z,4.25
2022-10-05T15:14:24.011Z,1.65
2022-10-05T15:16:55.656Z,2.45
2022-10-05T15:19:28.505Z,2.13
2022-10-05T15:22:18.715Z,1.98
2022-10-05T15:25:01.721Z,2.00
2022-10-05T15:27:42.010Z,1.70
2022-10-05T15:30:12.891Z,1.92
2022-10-05T15:32:58.911Z,2.53
2022-10-05T15:36:04.370Z,3.40
2022-10-05T15:38:40.143Z,2.97
2022-10-05T15:41:14.814Z,2.33
2022-10-05T15:43:53.724Z,2.10
2022-10-05T15:46:28.870Z,2.92
2022-10-05T15:49:18.273Z,2.10
2022-10-05T15:51:57.412Z,3.53
2022-10-05T15:54:49.830Z,2.38
2022-10-05T15:57:26.128Z,2.85
2022-10-05T16:00:02.218Z,2.40
2022-10-05T16:02:42.522Z,2.28
2022-10-05T16:05:47.802Z,2.35
2022-10-05T16:08:50.717Z,3.03
2022-10-05T16:11:42.404Z,2.20
2022-10-05T16:14:22.798Z,3.20
2022-10-05T16:17:05.654Z,2.22
2022-10-05T16:19:42.118Z,3.55
2022-10-05T16:22:22.221Z,4.40
2022-10-05T16:25:08.964Z,2.53
2022-10-05T16:27:52.610Z,2.92
2022-10-05T16:30:22.672Z,3.33
2022-10-05T16:32:59.109Z,3.95
2022-10-05T16:35:40.052Z,2.38
2022-10-05T16:38:20.752Z,3.47
2022-10-05T16:41:02.140Z,4.07
2022-10-05T16:43:41.495Z,2.63
2022-10-05T16:46:22.222Z,3.55
2022-10-05T16:48:59.418Z,5.40
2022-10-05T16:51:40.385Z,2.88
2022-10-05T16:54:19.087Z,3.08
2022-10-05T16:56:52.113Z,2.92
2022-10-05T16:59:53.829Z,5.85
2022-10-05T17:02:42.341Z,4.43
2022-10-05T17:05:31.639Z,5.13
2022-10-05T17:08:09.818Z,3.78
2022-10-05T17:10:55.196Z,3.42
2022-10-05T17:13:51.874Z,4.22
2022-10-05T17:16:33.634Z,6.22
2022-10-05T17:19:32.182Z,5.65
2022-10-05T17:22:03.113Z,5.13
2022-10-05T17:24:49.622Z,4.28
2022-10-05T17:27:26.064Z,5.30
2022-10-05T17:29:56.024Z,4.88
2022-10-05T17:32:41.257Z,5.40
2022-10-05T17:35:18.767Z,3.42
2022-10-05T17:38:21.678Z,7.88
2022-10-05T17:41:15.443Z,5.05
2022-10-05T17:44:26.139Z,4.03
2022-10-05T17:46:56.840Z,4.25
2022-10-05T17:50:15.522Z,3.80
2022-10-05T17:53:02.705Z,4.85
2022-10-05T17:56:02.864Z,4.53
2022-10-05T17:59:02.850Z,4.05
2022-10-05T18:01:34.631Z,5.55
2022-10-05T18:04:33.559Z,4.63
2022-10-05T18:07:06.306Z,4.70
2022-10-05T18:09:37.602Z,6.80
2022-10-05T18:12:26.770Z,10.00
2022-10-05T18:15:01.648Z,4.30
2022-10-05T18:17:45.046Z,6.05
2022-10-05T18:20:31.619Z,4.78
2022-10-05T18:23:35.363Z,4.60
2022-10-05T18:26:09.102Z,4.13
2022-10-05T18:28:53.721Z,6.93
2022-10-05T18:31:32.042Z,8.60
2022-10-05T18:34:15.006Z,4.30
2022-10-05T18:36:59.092Z,6.03
2022-10-05T18:39:46.491Z,4.95
2022-10-05T18:42:23.018Z,4.07
2022-10-05T18:44:56.458Z,6.07
2022-10-05T18:47:32.347Z,3.65
2022-10-05T18:50:11.823Z,5.35
2022-10-05T18:52:56.244Z,4.55
2022-10-05T18:55:32.990Z,6.13
2022-10-05T18:58:12.052Z,3.88
2022-10-05T19:01:01.867Z,9.98
2022-10-05T19:03:37.814Z,3.75
2022-10-05T19:06:16.787Z,3.45
2022-10-05T19:08:55.566Z,4.00
2022-10-05T19:11:34.681Z,5.05
2022-10-05T19:14:12.181Z,3.88
2022-10-05T19:17:00.761Z,4.03
2022-10-05T19:19:50.130Z,4.57
2022-10-05T19:22:31.291Z,3.03
2022-10-05T19:25:18.393Z,2.72
2022-10-05T19:27:58.289Z,3.78
2022-10-05T19:30:34.368Z,4.55
2022-10-05T19:33:20.672Z,2.75
2022-10-05T19:36:00.878Z,3.92
2022-10-05T19:38:36.847Z,3.42
2022-10-05T19:41:15.541Z,3.45
2022-10-05T19:43:58.240Z,3.00
2022-10-05T19:46:42.721Z,8.50
2022-10-05T19:49:12.729Z,5.13
2022-10-05T19:51:51.005Z,4.57
2022-10-05T19:54:25.848Z,5.80
2022-10-05T19:56:55.706Z,5.95
2022-10-05T19:59:28.466Z,3.22
2022-10-05T20:01:58.844Z,4.75
2022-10-05T20:04:37.916Z,3.53
2022-10-05T20:07:06.494Z,2.75
2022-10-05T20:09:50.540Z,5.72
2022-10-05T20:12:18.853Z,7.07
2022-10-05T20:15:02.470Z,5.68
2022-10-05T20:17:48.568Z,5.07
2022-10-05T20:20:30.150Z,3.20
2022-10-05T20:23:20.210Z,4.43
2022-10-05T20:26:08.785Z,6.80
2022-10-05T20:28:37.282Z,2.10
2022-10-05T20:31:10.521Z,3.42
2022-10-05T20:33:40.245Z,4.07
2022-10-05T20:36:08.918Z,6.53
2022-10-05T20:38:40.755Z,2.42
2022-10-05T20:41:09.688Z,4.03
2022-10-05T20:43:39.419Z,6.45
2022-10-05T20:46:11.521Z,6.55
2022-10-05T20:48:39.906Z,2.58
2022-10-05T20:51:08.697Z,2.25
2022-10-05T20:53:36.940Z,3.47
2022-10-05T20:56:05.277Z,4.25
2022-10-05T20:58:33.484Z,3.20
2022-10-05T21:01:19.674Z,6.45
2022-10-05T21:03:50.548Z,4.68
2022-10-05T21:06:19.038Z,3.13
2022-10-05T21:08:47.381Z,5.50
2022-10-05T21:11:15.668Z,4.82
2022-10-05T21:13:45.637Z,3.25
2022-10-05T21:16:14.095Z,2.42
2022-10-05T21:18:42.696Z,5.63
2022-10-05T21:21:12.571Z,4.03
2022-10-05T21:23:40.818Z,6.55
2022-10-05T21:26:09.071Z,3.53
2022-10-05T21:28:38.346Z,3.28
2022-10-05T21:31:07.147Z,2.85
2022-10-05T21:33:35.692Z,2.65
2022-10-05T21:36:04.203Z,4.78
2022-10-05T21:38:33.805Z,3.35
2022-10-05T21:41:02.241Z,3.85
2022-10-05T21:43:30.915Z,1.80
2022-10-05T21:45:59.533Z,2.15
2022-10-05T21:48:28.445Z,3.30
2022-10-05T21:50:57.174Z,4.13
2022-10-05T21:53:28.656Z,1.92
2022-10-05T21:56:02.789Z,7.47
2022-10-05T21:58:31.863Z,2.42
2022-10-05T22:01:00.201Z,4.30
2022-10-05T22:03:28.500Z,2.05
2022-10-05T22:05:56.769Z,2.38
2022-10-05T22:08:27.160Z,3.25
2022-10-05T22:10:55.857Z,3.17
2022-10-05T22:13:26.983Z,1.92
2022-10-05T22:15:56.487Z,2.67
2022-10-05T22:18:26.890Z,4.22
2022-10-05T22:20:55.399Z,2.42
2022-10-05T22:23:23.641Z,3.80
2022-10-05T22:25:51.991Z,7.32
2022-10-05T22:28:20.329Z,3.47
2022-10-05T22:30:49.982Z,4.03
2022-10-05T22:33:18.295Z,5.75
2022-10-05T22:35:46.806Z,3.85
2022-10-05T22:38:15.052Z,4.97
2022-10-05T22:40:43.298Z,4.60
2022-10-05T22:43:13.645Z,4.03
2022-10-05T22:45:42.505Z,6.50
2022-10-05T22:48:12.229Z,4.20
2022-10-05T22:50:40.460Z,5.25
2022-10-05T22:53:08.694Z,2.90
2022-10-05T22:55:36.905Z,3.80
2022-10-05T22:58:05.116Z,2.72
2022-10-05T23:00:56.589Z,2.50
2022-10-05T23:03:23.079Z,5.45
2022-10-05T23:05:57.773Z,3.17
2022-10-05T23:08:26.627Z,3.40
2022-10-05T23:10:55.153Z,3.30
2022-10-05T23:13:23.483Z,5.95
2022-10-05T23:15:51.703Z,3.58
2022-10-05T23:18:20.026Z,4.22
2022-10-05T23:20:55.900Z,3.35
2022-10-05T23:23:25.480Z,2.50
2022-10-05T23:25:53.785Z,3.55
2022-10-05T23:28:22.122Z,3.53
2022-10-05T23:30:50.315Z,6.93
2022-10-05T23:33:18.447Z,2.97
2022-10-05T23:35:46.624Z,2.65
2022-10-05T23:38:16.003Z,2.50
2022-10-05T23:40:47.367Z,3.75
2022-10-05T23:43:15.543Z,4.25
2022-10-05T23:45:45.582Z,2.58
2022-10-05T23:48:14.152Z,4.15
2022-10-05T23:50:44.013Z,5.32
2022-10-05T23:53:12.262Z,6.30
2022-10-05T23:55:41.855Z,3.80
2022-10-05T23:58:10.129Z,3.65
